sensor_id;sensor_type;location;lat;lon;timestamp;pressure;altitude;pressure_sealevel;temperature;humidity
24746;BME280;12845;52.042;6.838;2023-07-30T00:00:32;-18535.13;;;18.88;100.00
24746;BME280;12845;52.042;6.838;2023-07-30T00:02:57;-18532.94;;;18.80;100.00
24746;BME280;12845;52.042;6.838;2023-07-30T00:05:23;-18530.47;;;18.71;100.00
24746;BME280;12845;52.042;6.838;2023-07-30T00:07:48;-18531.16;;;18.74;100.00
24746;BME280;12845;52.042;6.838;2023-07-30T00:10:13;-18531.03;;;18.73;100.00
24746;BME280;12845;52.042;6.838;2023-07-30T00:12:39;-18530.63;;;18.71;100.00
24746;BME280;12845;52.042;6.838;2023-07-30T00:15:06;-18534.44;;;18.86;100.00
24746;BME280;12845;52.042;6.838;2023-07-30T00:17:32;-18531.16;;;18.74;100.00
24746;BME280;12845;52.042;6.838;2023-07-30T00:19:57;-18528.72;;;18.64;100.00
24746;BME280;12845;52.042;6.838;2023-07-30T00:22:22;-18526.53;;;18.56;100.00
24746;BME280;12845;52.042;6.838;2023-07-30T00:24:47;-18528.84;;;18.65;100.00
24746;BME280;12845;52.042;6.838;2023-07-30T00:27:13;-18525.16;;;18.51;100.00
24746;BME280;12845;52.042;6.838;2023-07-30T00:29:38;-18525.44;;;18.52;100.00
24746;BME280;12845;52.042;6.838;2023-07-30T00:32:04;-18526.13;;;18.55;100.00
24746;BME280;12845;52.042;6.838;2023-07-30T00:34:29;-18526.81;;;18.57;100.00
24746;BME280;12845;52.042;6.838;2023-07-30T00:36:55;-18528.44;;;18.63;100.00
24746;BME280;12845;52.042;6.838;2023-07-30T00:39:20;-18529.53;;;18.67;100.00
24746;BME280;12845;52.042;6.838;2023-07-30T00:41:46;-18529.94;;;18.69;100.00
24746;BME280;12845;52.042;6.838;2023-07-30T00:44:11;-18530.47;;;18.71;100.00
24746;BME280;12845;52.042;6.838;2023-07-30T00:46:36;-18532.66;;;18.79;100.00
24746;BME280;12845;52.042;6.838;2023-07-30T00:49:02;-18530.47;;;18.71;100.00
24746;BME280;12845;52.042;6.838;2023-07-30T00:51:29;-18528.16;;;18.62;100.00
24746;BME280;12845;52.042;6.838;2023-07-30T00:53:55;-18528.03;;;18.62;100.00
24746;BME280;12845;52.042;6.838;2023-07-30T00:56:20;-18524.91;;;18.50;100.00
24746;BME280;12845;52.042;6.838;2023-07-30T00:58:48;-18524.63;;;18.49;100.00
24746;BME280;12845;52.042;6.838;2023-07-30T01:01:13;-18533.91;;;18.84;100.00
24746;BME280;12845;52.042;6.838;2023-07-30T01:03:39;-18532.00;;;18.77;100.00
24746;BME280;12845;52.042;6.838;2023-07-30T01:06:05;-18528.31;;;18.63;100.00
24746;BME280;12845;52.042;6.838;2023-07-30T01:08:30;-18527.63;;;18.60;100.00
24746;BME280;12845;52.042;6.838;2023-07-30T01:10:57;-18528.84;;;18.65;100.00
24746;BME280;12845;52.042;6.838;2023-07-30T01:13:23;-18530.06;;;18.69;100.00
24746;BME280;12845;52.042;6.838;2023-07-30T01:15:49;-18529.38;;;18.67;100.00
24746;BME280;12845;52.042;6.838;2023-07-30T01:18:14;-18528.97;;;18.65;100.00
24746;BME280;12845;52.042;6.838;2023-07-30T01:20:40;-18529.94;;;18.69;100.00
24746;BME280;12845;52.042;6.838;2023-07-30T01:23:05;-18527.88;;;18.61;100.00
24746;BME280;12845;52.042;6.838;2023-07-30T01:25:34;-18528.72;;;18.64;100.00
24746;BME280;12845;52.042;6.838;2023-07-30T01:28:01;-18529.25;;;18.66;100.00
24746;BME280;12845;52.042;6.838;2023-07-30T01:30:38;-18529.81;;;18.68;100.00
24746;BME280;12845;52.042;6.838;2023-07-30T01:33:04;-18528.44;;;18.63;100.00
24746;BME280;12845;52.042;6.838;2023-07-30T01:35:31;-18522.03;;;18.39;100.00
24746;BME280;12845;52.042;6.838;2023-07-30T01:37:57;-18525.97;;;18.54;100.00
24746;BME280;12845;52.042;6.838;2023-07-30T01:40:23;-18522.84;;;18.42;100.00
24746;BME280;12845;52.042;6.838;2023-07-30T01:42:49;-18523.94;;;18.46;100.00
24746;BME280;12845;52.042;6.838;2023-07-30T01:45:14;-18527.34;;;18.59;100.00
24746;BME280;12845;52.042;6.838;2023-07-30T01:47:40;-18528.97;;;18.65;100.00
24746;BME280;12845;52.042;6.838;2023-07-30T01:50:05;-18524.06;;;18.47;100.00
24746;BME280;12845;52.042;6.838;2023-07-30T01:52:31;-18528.03;;;18.62;100.00
24746;BME280;12845;52.042;6.838;2023-07-30T01:54:56;-18528.56;;;18.64;100.00
24746;BME280;12845;52.042;6.838;2023-07-30T01:57:23;-18528.97;;;18.65;100.00
24746;BME280;12845;52.042;6.838;2023-07-30T01:59:49;-18525.56;;;18.53;100.00
24746;BME280;12845;52.042;6.838;2023-07-30T02:02:14;-18523.81;;;18.46;100.00
24746;BME280;12845;52.042;6.838;2023-07-30T02:04:39;-18525.72;;;18.53;100.00
24746;BME280;12845;52.042;6.838;2023-07-30T02:07:05;-18522.84;;;18.42;100.00
24746;BME280;12845;52.042;6.838;2023-07-30T02:09:30;-18527.22;;;18.59;100.00
24746;BME280;12845;52.042;6.838;2023-07-30T02:11:56;-18533.06;;;18.81;100.00
24746;BME280;12845;52.042;6.838;2023-07-30T02:14:21;-18531.44;;;18.75;100.00
24746;BME280;12845;52.042;6.838;2023-07-30T02:16:46;-18531.31;;;18.74;100.00
24746;BME280;12845;52.042;6.838;2023-07-30T02:19:12;-18528.16;;;18.62;100.00
24746;BME280;12845;52.042;6.838;2023-07-30T02:21:37;-18526.38;;;18.56;100.00
24746;BME280;12845;52.042;6.838;2023-07-30T02:24:07;-18522.56;;;18.41;100.00
24746;BME280;12845;52.042;6.838;2023-07-30T02:26:35;-18528.31;;;18.63;100.00
24746;BME280;12845;52.042;6.838;2023-07-30T02:29:00;-18518.34;;;18.25;100.00
24746;BME280;12845;52.042;6.838;2023-07-30T02:31:26;-18516.44;;;18.18;100.00
24746;BME280;12845;52.042;6.838;2023-07-30T02:33:51;-18516.56;;;18.19;100.00
24746;BME280;12845;52.042;6.838;2023-07-30T02:36:16;-18515.06;;;18.13;100.00
24746;BME280;12845;52.042;6.838;2023-07-30T02:38:42;-18516.97;;;18.20;100.00
24746;BME280;12845;52.042;6.838;2023-07-30T02:41:07;-18514.53;;;18.11;100.00
24746;BME280;12845;52.042;6.838;2023-07-30T02:43:32;-18519.72;;;18.31;100.00
24746;BME280;12845;52.042;6.838;2023-07-30T02:45:57;-18518.47;;;18.26;100.00
24746;BME280;12845;52.042;6.838;2023-07-30T02:48:23;-18516.84;;;18.20;100.00
24746;BME280;12845;52.042;6.838;2023-07-30T02:50:48;-18514.13;;;18.10;100.00
24746;BME280;12845;52.042;6.838;2023-07-30T02:53:13;-18514.13;;;18.10;100.00
24746;BME280;12845;52.042;6.838;2023-07-30T02:55:39;-18511.81;;;18.01;100.00
24746;BME280;12845;52.042;6.838;2023-07-30T02:58:04;-18513.56;;;18.08;100.00
24746;BME280;12845;52.042;6.838;2023-07-30T03:00:29;-18517.13;;;18.21;100.00
24746;BME280;12845;52.042;6.838;2023-07-30T03:02:56;-18518.22;;;18.25;100.00
24746;BME280;12845;52.042;6.838;2023-07-30T03:05:21;-18515.91;;;18.16;100.00
24746;BME280;12845;52.042;6.838;2023-07-30T03:07:47;-18517.81;;;18.23;100.00
24746;BME280;12845;52.042;6.838;2023-07-30T03:10:12;-18514.81;;;18.12;100.00
24746;BME280;12845;52.042;6.838;2023-07-30T03:12:37;-18517.66;;;18.23;100.00
24746;BME280;12845;52.042;6.838;2023-07-30T03:15:03;-18516.84;;;18.20;100.00
24746;BME280;12845;52.042;6.838;2023-07-30T03:17:28;-18519.44;;;18.30;100.00
24746;BME280;12845;52.042;6.838;2023-07-30T03:19:54;-18517.25;;;18.21;100.00
24746;BME280;12845;52.042;6.838;2023-07-30T03:22:19;-18514.53;;;18.11;100.00
24746;BME280;12845;52.042;6.838;2023-07-30T03:24:48;-18517.25;;;18.21;100.00
24746;BME280;12845;52.042;6.838;2023-07-30T03:27:14;-18516.72;;;18.19;100.00
24746;BME280;12845;52.042;6.838;2023-07-30T03:29:39;-18517.25;;;18.21;100.00
24746;BME280;12845;52.042;6.838;2023-07-30T03:32:05;-18517.81;;;18.23;100.00
24746;BME280;12845;52.042;6.838;2023-07-30T03:34:30;-18517.94;;;18.24;100.00
24746;BME280;12845;52.042;6.838;2023-07-30T03:36:56;-18519.44;;;18.30;100.00
24746;BME280;12845;52.042;6.838;2023-07-30T03:39:21;-18513.84;;;18.09;100.00
24746;BME280;12845;52.042;6.838;2023-07-30T03:41:46;-18511.41;;;17.99;100.00
24746;BME280;12845;52.042;6.838;2023-07-30T03:44:12;-18509.06;;;17.91;100.00
24746;BME280;12845;52.042;6.838;2023-07-30T03:46:37;-18508.66;;;17.89;100.00
24746;BME280;12845;52.042;6.838;2023-07-30T03:49:02;-18509.63;;;17.93;100.00
24746;BME280;12845;52.042;6.838;2023-07-30T03:51:28;-18509.63;;;17.93;100.00
24746;BME280;12845;52.042;6.838;2023-07-30T03:53:53;-18508.66;;;17.89;100.00
24746;BME280;12845;52.042;6.838;2023-07-30T03:56:18;-18506.63;;;17.81;100.00
24746;BME280;12845;52.042;6.838;2023-07-30T03:58:44;-18509.06;;;17.91;100.00
24746;BME280;12845;52.042;6.838;2023-07-30T04:01:09;-18507.16;;;17.84;100.00
24746;BME280;12845;52.042;6.838;2023-07-30T04:03:35;-18504.97;;;17.75;100.00
24746;BME280;12845;52.042;6.838;2023-07-30T04:06:00;-18506.63;;;17.81;100.00
24746;BME280;12845;52.042;6.838;2023-07-30T04:08:25;-18506.63;;;17.81;100.00
24746;BME280;12845;52.042;6.838;2023-07-30T04:10:51;-18506.06;;;17.79;100.00
24746;BME280;12845;52.042;6.838;2023-07-30T04:13:16;-18507.84;;;17.86;100.00
24746;BME280;12845;52.042;6.838;2023-07-30T04:15:41;-18511.25;;;17.99;100.00
24746;BME280;12845;52.042;6.838;2023-07-30T04:18:07;-18506.75;;;17.82;100.00
24746;BME280;12845;52.042;6.838;2023-07-30T04:20:32;-18511.81;;;18.01;100.00
24746;BME280;12845;52.042;6.838;2023-07-30T04:22:57;-18509.22;;;17.91;100.00
24746;BME280;12845;52.042;6.838;2023-07-30T04:25:23;-18507.44;;;17.85;100.00
24746;BME280;12845;52.042;6.838;2023-07-30T04:27:48;-18511.81;;;18.01;100.00
24746;BME280;12845;52.042;6.838;2023-07-30T04:30:14;-18512.22;;;18.02;100.00
24746;BME280;12845;52.042;6.838;2023-07-30T04:32:39;-18510.44;;;17.96;100.00
24746;BME280;12845;52.042;6.838;2023-07-30T04:35:05;-18519.16;;;18.29;100.00
24746;BME280;12845;52.042;6.838;2023-07-30T04:37:30;-18521.06;;;18.36;100.00
24746;BME280;12845;52.042;6.838;2023-07-30T04:39:56;-18521.91;;;18.39;100.00
24746;BME280;12845;52.042;6.838;2023-07-30T04:42:21;-18522.72;;;18.42;100.00
24746;BME280;12845;52.042;6.838;2023-07-30T04:44:47;-18517.81;;;18.23;100.00
24746;BME280;12845;52.042;6.838;2023-07-30T04:47:12;-18521.91;;;18.39;100.00
24746;BME280;12845;52.042;6.838;2023-07-30T04:49:38;-18522.72;;;18.42;100.00
24746;BME280;12845;52.042;6.838;2023-07-30T04:52:06;-18527.06;;;18.58;100.00
24746;BME280;12845;52.042;6.838;2023-07-30T04:54:32;-18523.13;;;18.43;100.00
24746;BME280;12845;52.042;6.838;2023-07-30T04:56:57;-18523.53;;;18.45;100.00
24746;BME280;12845;52.042;6.838;2023-07-30T04:59:23;-18524.75;;;18.49;100.00
24746;BME280;12845;52.042;6.838;2023-07-30T05:01:48;-18526.25;;;18.55;100.00
24746;BME280;12845;52.042;6.838;2023-07-30T05:04:13;-18529.13;;;18.66;100.00
24746;BME280;12845;52.042;6.838;2023-07-30T05:06:39;-18528.97;;;18.65;100.00
24746;BME280;12845;52.042;6.838;2023-07-30T05:09:04;-18528.03;;;18.62;100.00
24746;BME280;12845;52.042;6.838;2023-07-30T05:11:30;-18527.06;;;18.58;100.00
24746;BME280;12845;52.042;6.838;2023-07-30T05:13:55;-18520.53;;;18.34;100.00
24746;BME280;12845;52.042;6.838;2023-07-30T05:16:21;-18520.81;;;18.35;100.00
24746;BME280;12845;52.042;6.838;2023-07-30T05:18:47;-18522.16;;;18.40;100.00
24746;BME280;12845;52.042;6.838;2023-07-30T05:21:12;-18520.94;;;18.35;100.00
24746;BME280;12845;52.042;6.838;2023-07-30T05:23:37;-18523.41;;;18.44;100.00
24746;BME280;12845;52.042;6.838;2023-07-30T05:26:03;-18524.47;;;18.48;100.00
24746;BME280;12845;52.042;6.838;2023-07-30T05:28:28;-18524.34;;;18.48;100.00
24746;BME280;12845;52.042;6.838;2023-07-30T05:30:53;-18523.53;;;18.45;100.00
24746;BME280;12845;52.042;6.838;2023-07-30T05:33:19;-18525.31;;;18.52;100.00
24746;BME280;12845;52.042;6.838;2023-07-30T05:35:44;-18525.84;;;18.54;100.00
24746;BME280;12845;52.042;6.838;2023-07-30T05:38:11;-18526.25;;;18.55;100.00
24746;BME280;12845;52.042;6.838;2023-07-30T05:40:36;-18527.06;;;18.58;100.00
24746;BME280;12845;52.042;6.838;2023-07-30T05:43:01;-18531.56;;;18.75;100.00
24746;BME280;12845;52.042;6.838;2023-07-30T05:45:27;-18529.66;;;18.68;100.00
24746;BME280;12845;52.042;6.838;2023-07-30T05:47:52;-18534.84;;;18.87;100.00
24746;BME280;12845;52.042;6.838;2023-07-30T05:50:18;-18535.81;;;18.91;100.00
24746;BME280;12845;52.042;6.838;2023-07-30T05:52:43;-18541.81;;;19.13;100.00
24746;BME280;12845;52.042;6.838;2023-07-30T05:55:09;-18535.00;;;18.88;100.00
24746;BME280;12845;52.042;6.838;2023-07-30T05:57:34;-18537.16;;;18.96;100.00
24746;BME280;12845;52.042;6.838;2023-07-30T05:59:59;-18538.66;;;19.02;100.00
24746;BME280;12845;52.042;6.838;2023-07-30T06:02:25;-18539.22;;;19.04;100.00
24746;BME280;12845;52.042;6.838;2023-07-30T06:04:50;-18540.31;;;19.08;100.00
24746;BME280;12845;52.042;6.838;2023-07-30T06:07:15;-18537.16;;;18.96;100.00
24746;BME280;12845;52.042;6.838;2023-07-30T06:09:41;-18539.50;;;19.05;100.00
24746;BME280;12845;52.042;6.838;2023-07-30T06:12:06;-18544.66;;;19.24;100.00
24746;BME280;12845;52.042;6.838;2023-07-30T06:14:32;-18545.63;;;19.28;100.00
24746;BME280;12845;52.042;6.838;2023-07-30T06:16:57;-18544.25;;;19.23;100.00
24746;BME280;12845;52.042;6.838;2023-07-30T06:19:23;-18548.34;;;19.38;100.00
24746;BME280;12845;52.042;6.838;2023-07-30T06:21:48;-18550.94;;;19.48;100.00
24746;BME280;12845;52.042;6.838;2023-07-30T06:24:13;-18548.59;;;19.39;100.00
24746;BME280;12845;52.042;6.838;2023-07-30T06:26:39;-18548.75;;;19.39;100.00
24746;BME280;12845;52.042;6.838;2023-07-30T06:29:05;-18553.50;;;19.57;100.00
24746;BME280;12845;52.042;6.838;2023-07-30T06:31:31;-18555.00;;;19.63;100.00
24746;BME280;12845;52.042;6.838;2023-07-30T06:33:56;-18552.84;;;19.55;100.00
24746;BME280;12845;52.042;6.838;2023-07-30T06:36:21;-18557.59;;;19.73;100.00
24746;BME280;12845;52.042;6.838;2023-07-30T06:38:47;-18555.97;;;19.67;100.00
24746;BME280;12845;52.042;6.838;2023-07-30T06:41:12;-18558.56;;;19.76;100.00
24746;BME280;12845;52.042;6.838;2023-07-30T06:43:37;-18560.34;;;19.83;100.00
24746;BME280;12845;52.042;6.838;2023-07-30T06:46:03;-18550.38;;;19.46;100.00
24746;BME280;12845;52.042;6.838;2023-07-30T06:48:29;-18551.88;;;19.51;100.00
24746;BME280;12845;52.042;6.838;2023-07-30T06:50:54;-18549.16;;;19.41;100.00
24746;BME280;12845;52.042;6.838;2023-07-30T06:53:19;-18552.69;;;19.54;100.00
24746;BME280;12845;52.042;6.838;2023-07-30T06:55:45;-18551.06;;;19.48;100.00
24746;BME280;12845;52.042;6.838;2023-07-30T06:58:10;-18551.75;;;19.51;100.00
24746;BME280;12845;52.042;6.838;2023-07-30T07:00:36;-18551.06;;;19.48;100.00
24746;BME280;12845;52.042;6.838;2023-07-30T07:03:01;-18550.53;;;19.46;100.00
24746;BME280;12845;52.042;6.838;2023-07-30T07:05:27;-18554.34;;;19.60;100.00
24746;BME280;12845;52.042;6.838;2023-07-30T07:07:52;-18554.06;;;19.59;100.00
24746;BME280;12845;52.042;6.838;2023-07-30T07:10:17;-18557.19;;;19.71;100.00
24746;BME280;12845;52.042;6.838;2023-07-30T07:12:43;-18556.78;;;19.70;100.00
24746;BME280;12845;52.042;6.838;2023-07-30T07:15:08;-18559.25;;;19.79;100.00
24746;BME280;12845;52.042;6.838;2023-07-30T07:17:34;-18562.78;;;19.92;100.00
24746;BME280;12845;52.042;6.838;2023-07-30T07:20:00;-18562.09;;;19.90;100.00
24746;BME280;12845;52.042;6.838;2023-07-30T07:22:26;-18562.22;;;19.90;100.00
24746;BME280;12845;52.042;6.838;2023-07-30T07:24:52;-18559.91;;;19.81;100.00
24746;BME280;12845;52.042;6.838;2023-07-30T07:27:18;-18560.34;;;19.83;100.00
24746;BME280;12845;52.042;6.838;2023-07-30T07:29:43;-18563.59;;;19.95;100.00
24746;BME280;12845;52.042;6.838;2023-07-30T07:32:09;-18565.50;;;20.02;100.00
24746;BME280;12845;52.042;6.838;2023-07-30T07:34:34;-18566.72;;;20.07;100.00
24746;BME280;12845;52.042;6.838;2023-07-30T07:37:01;-18569.31;;;20.17;100.00
24746;BME280;12845;52.042;6.838;2023-07-30T07:39:29;-18565.38;;;20.02;100.00
24746;BME280;12845;52.042;6.838;2023-07-30T07:41:55;-18557.59;;;19.73;100.00
24746;BME280;12845;52.042;6.838;2023-07-30T07:44:20;-18555.00;;;19.63;100.00
24746;BME280;12845;52.042;6.838;2023-07-30T07:46:47;-18557.34;;;19.72;100.00
24746;BME280;12845;52.042;6.838;2023-07-30T07:49:12;-18561.81;;;19.89;100.00
24746;BME280;12845;52.042;6.838;2023-07-30T07:51:38;-18564.41;;;19.98;100.00
24746;BME280;12845;52.042;6.838;2023-07-30T07:54:03;-18565.78;;;20.03;100.00
24746;BME280;12845;52.042;6.838;2023-07-30T07:56:30;-18565.38;;;20.02;100.00
24746;BME280;12845;52.042;6.838;2023-07-30T07:58:55;-18564.41;;;19.98;100.00
24746;BME280;12845;52.042;6.838;2023-07-30T08:01:20;-18567.97;;;20.12;100.00
24746;BME280;12845;52.042;6.838;2023-07-30T08:03:46;-18566.59;;;20.06;100.00
24746;BME280;12845;52.042;6.838;2023-07-30T08:06:11;-18571.34;;;20.24;100.00
24746;BME280;12845;52.042;6.838;2023-07-30T08:08:38;-18569.84;;;20.19;100.00
24746;BME280;12845;52.042;6.838;2023-07-30T08:11:07;-18570.13;;;20.20;100.00
24746;BME280;12845;52.042;6.838;2023-07-30T08:13:33;-18569.44;;;20.17;100.00
24746;BME280;12845;52.042;6.838;2023-07-30T08:15:59;-18573.13;;;20.31;100.00
24746;BME280;12845;52.042;6.838;2023-07-30T08:18:25;-18574.91;;;20.38;100.00
24746;BME280;12845;52.042;6.838;2023-07-30T08:20:51;-18580.06;;;20.57;100.00
24746;BME280;12845;52.042;6.838;2023-07-30T08:23:16;-18576.66;;;20.44;100.00
24746;BME280;12845;52.042;6.838;2023-07-30T08:25:41;-18576.78;;;20.45;100.00
24746;BME280;12845;52.042;6.838;2023-07-30T08:28:07;-18574.34;;;20.36;100.00
24746;BME280;12845;52.042;6.838;2023-07-30T08:30:32;-18575.31;;;20.39;100.00
24746;BME280;12845;52.042;6.838;2023-07-30T08:32:58;-18578.56;;;20.51;100.00
24746;BME280;12845;52.042;6.838;2023-07-30T08:35:23;-18579.38;;;20.55;100.00
24746;BME280;12845;52.042;6.838;2023-07-30T08:37:51;-18584.16;;;20.72;100.00
24746;BME280;12845;52.042;6.838;2023-07-30T08:40:17;-18583.59;;;20.70;100.00
24746;BME280;12845;52.042;6.838;2023-07-30T08:42:42;-18590.00;;;20.94;100.00
24746;BME280;12845;52.042;6.838;2023-07-30T08:45:08;-18593.25;;;21.07;100.00
24746;BME280;12845;52.042;6.838;2023-07-30T08:47:35;-18593.81;;;21.09;100.00
24746;BME280;12845;52.042;6.838;2023-07-30T08:50:00;-18591.63;;;21.01;100.00
24746;BME280;12845;52.042;6.838;2023-07-30T08:52:26;-18596.25;;;21.18;100.00
24746;BME280;12845;52.042;6.838;2023-07-30T08:54:53;-18591.22;;;20.99;100.00
24746;BME280;12845;52.042;6.838;2023-07-30T08:57:21;-18599.66;;;21.31;100.00
24746;BME280;12845;52.042;6.838;2023-07-30T08:59:50;-18599.25;;;21.29;100.00
24746;BME280;12845;52.042;6.838;2023-07-30T09:02:23;-18602.78;;;21.43;100.00
24746;BME280;12845;52.042;6.838;2023-07-30T09:04:53;-18605.78;;;21.54;100.00
24746;BME280;12845;52.042;6.838;2023-07-30T09:07:23;-18604.16;;;21.48;100.00
24746;BME280;12845;52.042;6.838;2023-07-30T09:09:50;-18608.75;;;21.65;100.00
24746;BME280;12845;52.042;6.838;2023-07-30T09:12:15;-18608.50;;;21.64;100.00
24746;BME280;12845;52.042;6.838;2023-07-30T09:14:41;-18605.50;;;21.53;100.00
24746;BME280;12845;52.042;6.838;2023-07-30T09:17:10;-18608.34;;;21.63;100.00
24746;BME280;12845;52.042;6.838;2023-07-30T09:19:36;-18604.28;;;21.48;100.00
24746;BME280;12845;52.042;6.838;2023-07-30T09:22:08;-18607.53;;;21.60;100.00
24746;BME280;12845;52.042;6.838;2023-07-30T09:24:33;-18609.44;;;21.68;100.00
24746;BME280;12845;52.042;6.838;2023-07-30T09:27:02;-18612.56;;;21.79;100.00
24746;BME280;12845;52.042;6.838;2023-07-30T09:29:28;-18616.38;;;21.94;100.00
24746;BME280;12845;52.042;6.838;2023-07-30T09:31:54;-18617.47;;;21.98;100.00
24746;BME280;12845;52.042;6.838;2023-07-30T09:34:24;-18621.00;;;22.11;100.00
24746;BME280;12845;52.042;6.838;2023-07-30T09:36:51;-18626.56;;;22.32;100.00
24746;BME280;12845;52.042;6.838;2023-07-30T09:39:20;-18632.81;;;22.56;100.00
24746;BME280;12845;52.042;6.838;2023-07-30T09:41:46;-18627.25;;;22.35;100.00
24746;BME280;12845;52.042;6.838;2023-07-30T09:44:12;-18627.91;;;22.37;100.00
24746;BME280;12845;52.042;6.838;2023-07-30T09:46:45;-18626.84;;;22.33;100.00
24746;BME280;12845;52.042;6.838;2023-07-30T09:49:10;-18628.59;;;22.40;100.00
24746;BME280;12845;52.042;6.838;2023-07-30T09:51:40;-18632.53;;;22.55;100.00
24746;BME280;12845;52.042;6.838;2023-07-30T09:54:06;-18633.34;;;22.58;100.00
24746;BME280;12845;52.042;6.838;2023-07-30T09:56:33;-18637.97;;;22.75;100.00
24746;BME280;12845;52.042;6.838;2023-07-30T09:58:59;-18636.19;;;22.68;100.00
24746;BME280;12845;52.042;6.838;2023-07-30T10:01:26;-18635.25;;;22.65;100.00
24746;BME280;12845;52.042;6.838;2023-07-30T10:03:55;-18635.25;;;22.65;100.00
24746;BME280;12845;52.042;6.838;2023-07-30T10:06:21;-18630.50;;;22.47;100.00
24746;BME280;12845;52.042;6.838;2023-07-30T10:08:49;-18625.63;;;22.28;100.00
24746;BME280;12845;52.042;6.838;2023-07-30T10:11:16;-18625.47;;;22.28;100.00
24746;BME280;12845;52.042;6.838;2023-07-30T10:13:41;-18626.56;;;22.32;100.00
24746;BME280;12845;52.042;6.838;2023-07-30T10:16:10;-18626.69;;;22.33;100.00
24746;BME280;12845;52.042;6.838;2023-07-30T10:18:40;-18626.16;;;22.30;100.00
24746;BME280;12845;52.042;6.838;2023-07-30T10:21:10;-18625.88;;;22.29;100.00
24746;BME280;12845;52.042;6.838;2023-07-30T10:23:45;-18628.88;;;22.41;100.00
24746;BME280;12845;52.042;6.838;2023-07-30T10:26:11;-18630.50;;;22.47;100.00
24746;BME280;12845;52.042;6.838;2023-07-30T10:28:37;-18631.03;;;22.49;100.00
24746;BME280;12845;52.042;6.838;2023-07-30T10:31:07;-18630.91;;;22.48;99.49
24746;BME280;12845;52.042;6.838;2023-07-30T10:33:50;-18631.19;;;22.49;100.00
24746;BME280;12845;52.042;6.838;2023-07-30T10:36:18;-18640.00;;;22.83;100.00
24746;BME280;12845;52.042;6.838;2023-07-30T10:38:51;-18640.13;;;22.83;95.56
24746;BME280;12845;52.042;6.838;2023-07-30T10:41:18;-18635.13;;;22.64;93.86
24746;BME280;12845;52.042;6.838;2023-07-30T10:43:49;-18635.13;;;22.64;95.07
24746;BME280;12845;52.042;6.838;2023-07-30T10:46:17;-18639.06;;;22.79;95.06
24746;BME280;12845;52.042;6.838;2023-07-30T10:48:47;-18639.47;;;22.81;93.94
24746;BME280;12845;52.042;6.838;2023-07-30T10:51:17;-18639.72;;;22.82;89.99
24746;BME280;12845;52.042;6.838;2023-07-30T10:53:47;-18643.25;;;22.95;90.52
24746;BME280;12845;52.042;6.838;2023-07-30T10:56:15;-18640.28;;;22.84;89.32
24746;BME280;12845;52.042;6.838;2023-07-30T10:58:42;-18638.66;;;22.78;89.68
24746;BME280;12845;52.042;6.838;2023-07-30T11:01:08;-18637.28;;;22.72;90.47
24746;BME280;12845;52.042;6.838;2023-07-30T11:03:34;-18636.75;;;22.70;90.83
24746;BME280;12845;52.042;6.838;2023-07-30T11:06:01;-18638.66;;;22.78;95.28
24746;BME280;12845;52.042;6.838;2023-07-30T11:10:58;-18632.53;;;22.55;93.73
24746;BME280;12845;52.042;6.838;2023-07-30T11:13:24;-18640.00;;;22.83;94.03
24746;BME280;12845;52.042;6.838;2023-07-30T11:15:50;-18636.47;;;22.69;93.67
24746;BME280;12845;52.042;6.838;2023-07-30T11:18:15;-18631.31;;;22.50;96.07
24746;BME280;12845;52.042;6.838;2023-07-30T11:20:40;-18633.34;;;22.58;94.64
24746;BME280;12845;52.042;6.838;2023-07-30T11:23:20;-18636.75;;;22.70;95.48
24746;BME280;12845;52.042;6.838;2023-07-30T11:25:47;-18631.59;;;22.51;95.51
24746;BME280;12845;52.042;6.838;2023-07-30T11:28:13;-18628.75;;;22.40;97.79
24746;BME280;12845;52.042;6.838;2023-07-30T11:30:39;-18627.78;;;22.37;100.00
24746;BME280;12845;52.042;6.838;2023-07-30T11:33:04;-18626.44;;;22.32;100.00
24746;BME280;12845;52.042;6.838;2023-07-30T11:35:30;-18631.72;;;22.51;100.00
24746;BME280;12845;52.042;6.838;2023-07-30T11:37:55;-18631.03;;;22.49;100.00
24746;BME280;12845;52.042;6.838;2023-07-30T11:40:25;-18629.16;;;22.42;99.48
24746;BME280;12845;52.042;6.838;2023-07-30T11:42:51;-18649.38;;;23.18;93.48
24746;BME280;12845;52.042;6.838;2023-07-30T11:45:21;-18644.34;;;22.99;94.09
24746;BME280;12845;52.042;6.838;2023-07-30T11:47:47;-18642.84;;;22.93;95.68
24746;BME280;12845;52.042;6.838;2023-07-30T11:50:12;-18643.00;;;22.94;94.44
24746;BME280;12845;52.042;6.838;2023-07-30T11:53:07;-18643.00;;;22.94;88.59
24746;BME280;12845;52.042;6.838;2023-07-30T11:55:42;-18642.44;;;22.92;88.33
24746;BME280;12845;52.042;6.838;2023-07-30T11:58:09;-18643.81;;;22.97;88.22
24746;BME280;12845;52.042;6.838;2023-07-30T12:00:36;-18641.09;;;22.87;88.58
24746;BME280;12845;52.042;6.838;2023-07-30T12:03:04;-18639.88;;;22.82;89.83
24746;BME280;12845;52.042;6.838;2023-07-30T12:05:33;-18642.19;;;22.91;85.96
24746;BME280;12845;52.042;6.838;2023-07-30T12:08:00;-18640.41;;;22.84;81.74
24746;BME280;12845;52.042;6.838;2023-07-30T12:10:28;-18641.78;;;22.89;83.81
24746;BME280;12845;52.042;6.838;2023-07-30T12:12:53;-18635.38;;;22.65;83.86
24746;BME280;12845;52.042;6.838;2023-07-30T12:15:18;-18636.88;;;22.71;84.73
24746;BME280;12845;52.042;6.838;2023-07-30T12:17:44;-18639.31;;;22.80;86.57
24746;BME280;12845;52.042;6.838;2023-07-30T12:20:11;-18640.41;;;22.84;85.70
24746;BME280;12845;52.042;6.838;2023-07-30T12:22:36;-18639.47;;;22.81;86.37
24746;BME280;12845;52.042;6.838;2023-07-30T12:25:03;-18641.22;;;22.87;89.65
24746;BME280;12845;52.042;6.838;2023-07-30T12:27:29;-18644.34;;;22.99;91.24
24746;BME280;12845;52.042;6.838;2023-07-30T12:29:55;-18649.91;;;23.20;86.52
24746;BME280;12845;52.042;6.838;2023-07-30T12:32:20;-18657.91;;;23.50;87.56
24746;BME280;12845;52.042;6.838;2023-07-30T12:34:46;-18651.69;;;23.27;87.95
24746;BME280;12845;52.042;6.838;2023-07-30T12:37:14;-18657.09;;;23.47;87.80